createdAt,value
2018-09-10T00:00:29.741Z,4.60
2018-09-10T00:02:57.380Z,4.83
2018-09-10T00:05:24.819Z,4.43
2018-09-10T00:07:52.611Z,5.20
2018-09-10T00:10:20.097Z,4.50
2018-09-10T00:12:47.568Z,4.43
2018-09-10T00:15:15.050Z,3.87
2018-09-10T00:17:42.636Z,4.87
2018-09-10T00:20:10.328Z,4.50
2018-09-10T00:22:37.772Z,4.80
2018-09-10T00:25:05.712Z,4.40
2018-09-10T00:27:33.185Z,4.30
2018-09-10T00:30:00.629Z,6.20
2018-09-10T00:32:28.166Z,4.23
2018-09-10T00:34:55.692Z,4.87
2018-09-10T00:37:23.218Z,4.30
2018-09-10T00:39:50.701Z,4.40
2018-09-10T00:42:18.160Z,5.27
2018-09-10T00:44:45.624Z,4.50
2018-09-10T00:47:13.121Z,5.07
2018-09-10T00:49:40.560Z,4.40
2018-09-10T00:52:08.056Z,4.30
2018-09-10T00:54:35.524Z,3.97
2018-09-10T00:57:02.969Z,4.57
2018-09-10T00:59:30.421Z,3.50
2018-09-10T01:01:57.904Z,3.77
2018-09-10T01:04:25.396Z,4.10
2018-09-10T01:06:52.893Z,3.70
2018-09-10T01:09:20.342Z,4.27
2018-09-10T01:11:47.800Z,4.10
2018-09-10T01:14:15.280Z,3.90
2018-09-10T01:16:42.748Z,3.67
2018-09-10T01:19:10.220Z,3.30
2018-09-10T01:21:37.673Z,3.30
2018-09-10T01:24:05.498Z,3.67
2018-09-10T01:26:32.965Z,3.90
2018-09-10T01:29:00.430Z,3.77
2018-09-10T01:31:28.457Z,3.83
2018-09-10T01:34:01.644Z,3.80
2018-09-10T01:36:29.120Z,3.80
2018-09-10T01:38:56.641Z,3.80
2018-09-10T01:41:24.319Z,4.47
2018-09-10T01:43:52.033Z,3.97
2018-09-10T01:46:19.488Z,3.73
2018-09-10T01:48:47.307Z,4.03
2018-09-10T01:51:14.849Z,4.20
2018-09-10T01:53:42.300Z,4.40
2018-09-10T01:56:09.834Z,3.80
2018-09-10T01:58:37.299Z,3.60
2018-09-10T02:01:04.793Z,3.80
2018-09-10T02:03:32.373Z,4.07
2018-09-10T02:05:59.935Z,4.13
2018-09-10T02:08:27.378Z,4.23
2018-09-10T02:10:54.885Z,4.13
2018-09-10T02:13:22.378Z,4.30
2018-09-10T02:15:50.883Z,4.60
2018-09-10T02:18:19.406Z,4.80
2018-09-10T02:20:46.855Z,4.20
2018-09-10T02:23:14.422Z,4.10
2018-09-10T02:25:42.072Z,4.53
2018-09-10T02:28:10.112Z,3.80
2018-09-10T02:30:37.556Z,4.30
2018-09-10T02:33:05.975Z,4.37
2018-09-10T02:35:33.447Z,4.50
2018-09-10T02:38:00.923Z,4.20
2018-09-10T02:40:28.547Z,4.50
2018-09-10T02:42:56.016Z,4.40
2018-09-10T02:45:23.485Z,4.87
2018-09-10T02:47:50.984Z,5.30
2018-09-10T02:50:18.512Z,4.33
2018-09-10T02:52:46.064Z,4.37
2018-09-10T02:55:13.560Z,4.53
2018-09-10T02:57:41.108Z,5.93
2018-09-10T03:00:09.452Z,4.27
2018-09-10T03:02:36.984Z,4.80
2018-09-10T03:05:04.529Z,4.87
2018-09-10T03:07:32.085Z,5.03
2018-09-10T03:10:00.728Z,4.90
2018-09-10T03:12:28.213Z,4.77
2018-09-10T03:14:55.792Z,5.27
2018-09-10T03:17:23.286Z,5.00
2018-09-10T03:19:50.788Z,4.03
2018-09-10T03:22:18.259Z,4.70
2018-09-10T03:24:46.136Z,4.77
2018-09-10T03:27:13.651Z,5.27
2018-09-10T03:29:41.115Z,5.07
2018-09-10T03:32:08.603Z,4.37
2018-09-10T03:34:36.107Z,4.43
2018-09-10T03:37:03.772Z,5.00
2018-09-10T03:39:31.257Z,4.30
2018-09-10T03:41:59.987Z,4.73
2018-09-10T03:44:27.589Z,6.10
2018-09-10T03:46:55.364Z,5.50
2018-09-10T03:49:22.933Z,4.87
2018-09-10T03:51:50.540Z,4.30
2018-09-10T03:54:18.084Z,4.90
2018-09-10T03:56:45.578Z,5.27
2018-09-10T03:59:13.101Z,4.87
2018-09-10T04:01:40.638Z,4.47
2018-09-10T04:04:08.195Z,5.53
2018-09-10T04:06:35.776Z,4.83
2018-09-10T04:09:04.698Z,5.87
2018-09-10T04:11:32.271Z,4.83
2018-09-10T04:14:00.826Z,5.27
2018-09-10T04:16:28.395Z,5.33
2018-09-10T04:18:56.012Z,5.33
2018-09-10T04:21:23.549Z,5.50
2018-09-10T04:23:51.107Z,5.30
2018-09-10T04:26:18.579Z,5.67
2018-09-10T04:28:46.040Z,5.33
2018-09-10T04:31:13.500Z,5.00
2018-09-10T04:33:40.988Z,6.07
2018-09-10T04:36:08.575Z,5.80
2018-09-10T04:38:36.036Z,4.90
2018-09-10T04:41:03.795Z,5.93
2018-09-10T04:43:31.627Z,6.10
2018-09-10T04:45:59.846Z,6.07
2018-09-10T04:48:27.702Z,5.63
2018-09-10T04:50:55.588Z,5.90
2018-09-10T04:53:23.717Z,5.77
2018-09-10T04:55:51.423Z,6.23
2018-09-10T04:58:19.707Z,6.93
2018-09-10T05:00:47.504Z,5.80
2018-09-10T05:03:15.375Z,6.10
2018-09-10T05:05:43.480Z,6.77
2018-09-10T05:08:11.035Z,7.17
2018-09-10T05:10:38.791Z,6.60
2018-09-10T05:13:06.518Z,6.70
2018-09-10T05:15:33.969Z,6.97
2018-09-10T05:18:02.005Z,6.87
2018-09-10T05:20:29.446Z,7.40
2018-09-10T05:22:56.906Z,7.43
2018-09-10T05:25:24.445Z,6.47
2018-09-10T05:27:51.910Z,7.33
2018-09-10T05:30:19.465Z,7.37
2018-09-10T05:32:47.072Z,6.70
2018-09-10T05:35:14.561Z,7.30
2018-09-10T05:37:42.046Z,6.60
2018-09-10T05:40:10.375Z,7.30
2018-09-10T05:42:38.156Z,7.30
2018-09-10T05:45:07.442Z,6.73
2018-09-10T05:47:34.919Z,7.93
2018-09-10T05:50:02.351Z,7.30
2018-09-10T05:52:29.870Z,8.03
2018-09-10T05:54:57.360Z,7.20
2018-09-10T05:57:24.836Z,7.40
2018-09-10T05:59:52.356Z,8.37
2018-09-10T06:02:19.900Z,8.10
2018-09-10T06:04:47.441Z,8.80
2018-09-10T06:07:14.903Z,8.53
2018-09-10T06:09:42.384Z,9.50
2018-09-10T06:12:09.855Z,7.83
2018-09-10T06:14:37.345Z,7.77
2018-09-10T06:17:04.809Z,9.40
2018-09-10T06:19:32.307Z,9.20
2018-09-10T06:22:00.520Z,9.27
2018-09-10T06:24:27.972Z,9.03
2018-09-10T06:26:56.041Z,8.67
2018-09-10T06:29:23.513Z,9.70
2018-09-10T06:31:51.012Z,8.97
2018-09-10T06:34:18.591Z,9.50
2018-09-10T06:36:46.166Z,8.80
2018-09-10T06:39:13.668Z,9.30
2018-09-10T06:41:41.117Z,9.37
2018-09-10T06:44:09.155Z,10.87
2018-09-10T06:46:36.806Z,10.30
2018-09-10T06:49:04.388Z,9.70
2018-09-10T06:51:31.917Z,9.60
2018-09-10T06:54:00.176Z,10.00
2018-09-10T06:56:27.664Z,10.50
2018-09-10T06:58:55.176Z,10.27
2018-09-10T07:01:22.701Z,11.37
2018-09-10T07:03:50.176Z,9.80
2018-09-10T07:06:17.666Z,10.00
2018-09-10T07:08:45.140Z,11.57
2018-09-10T07:11:12.695Z,11.00
2018-09-10T07:13:40.148Z,11.83
2018-09-10T07:16:07.652Z,11.73
2018-09-10T07:18:35.161Z,10.60
2018-09-10T07:21:02.627Z,11.80
2018-09-10T07:23:30.108Z,11.87
2018-09-10T07:25:57.692Z,12.40
2018-09-10T07:28:25.210Z,13.33
2018-09-10T07:30:52.747Z,14.93
2018-09-10T07:33:20.249Z,12.83
2018-09-10T07:35:47.717Z,15.57
2018-09-10T07:38:15.204Z,13.80
2018-09-10T07:40:42.720Z,14.50
2018-09-10T07:43:10.231Z,16.53
2018-09-10T07:45:38.160Z,14.40
2018-09-10T07:48:05.665Z,15.03
2018-09-10T07:50:33.206Z,14.20
2018-09-10T07:53:00.733Z,15.97
2018-09-10T07:55:28.181Z,16.50
2018-09-10T07:57:55.744Z,18.40
2018-09-10T08:00:23.308Z,16.97
2018-09-10T08:02:50.956Z,15.50
2018-09-10T08:05:18.424Z,15.53
2018-09-10T08:07:45.891Z,16.33
2018-09-10T08:10:13.461Z,15.33
2018-09-10T08:12:40.959Z,16.93
2018-09-10T08:15:08.600Z,16.73
2018-09-10T08:17:36.092Z,16.20
2018-09-10T08:20:04.365Z,16.17
2018-09-10T08:22:31.864Z,15.60
2018-09-10T08:24:59.431Z,15.30
2018-09-10T08:27:26.879Z,15.50
2018-09-10T08:29:54.495Z,17.40
2018-09-10T08:32:22.013Z,17.70
2018-09-10T08:34:49.524Z,16.83
2018-09-10T08:37:16.999Z,16.23
2018-09-10T08:39:44.586Z,16.23
2018-09-10T08:42:12.756Z,16.07
2018-09-10T08:44:40.228Z,16.00
2018-09-10T08:47:07.759Z,16.30
2018-09-10T08:49:35.242Z,16.13
2018-09-10T08:52:03.164Z,16.30
2018-09-10T08:54:30.881Z,15.40
2018-09-10T08:56:58.313Z,15.73
2018-09-10T08:59:25.795Z,17.03
2018-09-10T09:01:53.342Z,17.50
2018-09-10T09:04:20.869Z,16.50
2018-09-10T09:06:48.548Z,16.83
2018-09-10T09:09:16.159Z,17.10
2018-09-10T09:11:43.642Z,14.40
2018-09-10T09:14:11.164Z,14.00
2018-09-10T09:16:38.735Z,13.80
2018-09-10T09:19:06.229Z,13.63
2018-09-10T09:21:33.738Z,12.40
2018-09-10T09:24:01.976Z,12.77
2018-09-10T09:26:29.671Z,13.00
2018-09-10T09:28:57.412Z,11.73
2018-09-10T09:31:24.952Z,12.83
2018-09-10T09:33:52.553Z,12.90
2018-09-10T09:36:25.658Z,13.43
2018-09-10T09:38:58.828Z,13.87
2018-09-10T09:41:32.120Z,12.40
2018-09-10T09:44:05.397Z,12.90
2018-09-10T09:46:32.908Z,12.40
2018-09-10T09:49:00.437Z,13.07
2018-09-10T09:51:28.097Z,12.00
2018-09-10T09:53:55.655Z,12.20
2018-09-10T09:56:23.212Z,12.23
2018-09-10T09:58:51.020Z,12.90
2018-09-10T10:01:21.046Z,12.53
2018-09-10T10:03:54.861Z,10.60
2018-09-10T10:06:23.236Z,13.70
2018-09-10T10:08:51.088Z,11.33
2018-09-10T10:11:18.738Z,9.37
2018-09-10T10:13:46.151Z,8.27
2018-09-10T10:16:13.682Z,9.37
2018-09-10T10:18:41.154Z,8.40
2018-09-10T10:21:08.831Z,8.07
2018-09-10T10:23:36.431Z,7.30
2018-09-10T10:26:03.948Z,8.70
2018-09-10T10:28:31.920Z,6.90
2018-09-10T10:30:59.416Z,8.07
2018-09-10T10:33:26.951Z,9.00
2018-09-10T10:35:54.423Z,6.43
2018-09-10T10:38:21.907Z,5.87
2018-09-10T10:40:49.536Z,6.63
2018-09-10T10:43:17.076Z,6.17
2018-09-10T10:45:44.750Z,5.70
2018-09-10T10:48:12.713Z,4.93
2018-09-10T10:50:40.204Z,5.27
2018-09-10T10:53:07.678Z,4.60
2018-09-10T10:55:35.232Z,5.27
2018-09-10T10:58:03.644Z,5.17
2018-09-10T11:00:31.143Z,5.10
2018-09-10T11:02:58.636Z,5.20
2018-09-10T11:05:26.181Z,5.30
2018-09-10T11:07:53.678Z,5.70
2018-09-10T11:10:21.168Z,5.03
2018-09-10T11:12:48.695Z,4.93
2018-09-10T11:15:16.454Z,5.40
2018-09-10T11:17:43.965Z,5.80
2018-09-10T11:20:11.462Z,4.67
2018-09-10T11:22:39.071Z,5.67
2018-09-10T11:25:06.775Z,5.10
2018-09-10T11:27:34.331Z,4.80
2018-09-10T11:30:02.633Z,5.10
2018-09-10T11:32:30.357Z,5.50
2018-09-10T11:34:58.090Z,6.00
2018-09-10T11:37:25.647Z,5.37
2018-09-10T11:39:53.462Z,6.20
2018-09-10T11:42:21.379Z,5.27
2018-09-10T11:44:48.892Z,4.70
2018-09-10T11:47:16.460Z,4.80
2018-09-10T11:49:44.319Z,4.53
2018-09-10T11:52:12.036Z,5.93
2018-09-10T11:54:39.777Z,4.90
2018-09-10T11:57:07.469Z,4.07
2018-09-10T11:59:35.346Z,4.43
2018-09-10T12:02:05.981Z,4.67
2018-09-10T12:04:33.446Z,4.30
2018-09-10T12:07:00.906Z,4.40
2018-09-10T12:09:28.492Z,6.43
2018-09-10T12:11:56.212Z,4.97
2018-09-10T12:14:23.828Z,5.70
2018-09-10T12:16:51.394Z,6.00
2018-09-10T12:19:18.910Z,5.77
2018-09-10T12:21:46.422Z,5.50
2018-09-10T12:24:13.922Z,4.57
2018-09-10T12:26:41.402Z,4.53
2018-09-10T12:29:08.888Z,5.10
2018-09-10T12:31:36.655Z,5.27
2018-09-10T12:34:04.335Z,4.80
2018-09-10T12:36:32.711Z,6.07
2018-09-10T12:39:00.282Z,5.30
2018-09-10T12:41:27.868Z,5.90
2018-09-10T12:43:55.490Z,5.43
2018-09-10T12:46:23.063Z,5.90
2018-09-10T12:48:50.578Z,5.63
2018-09-10T12:51:18.013Z,6.50
2018-09-10T12:53:51.814Z,5.87
2018-09-10T12:56:19.285Z,4.70
2018-09-10T12:58:46.848Z,4.67
2018-09-10T13:01:15.062Z,3.13
2018-09-10T13:03:42.701Z,3.20
2018-09-10T13:06:10.706Z,3.30
2018-09-10T13:08:39.912Z,3.30
2018-09-10T13:11:07.862Z,3.50
2018-09-10T13:13:35.345Z,3.60
2018-09-10T13:16:03.582Z,3.60
2018-09-10T13:18:31.046Z,3.40
2018-09-10T13:20:58.668Z,3.60
2018-09-10T13:23:26.192Z,3.30
2018-09-10T13:25:53.666Z,3.67
2018-09-10T13:28:21.152Z,3.50
2018-09-10T13:30:48.644Z,3.30
2018-09-10T13:33:16.212Z,3.40
2018-09-10T13:35:43.725Z,3.70
2018-09-10T13:38:12.038Z,3.60
2018-09-10T13:40:39.580Z,3.40
2018-09-10T13:43:07.155Z,3.40
2018-09-10T13:45:34.609Z,3.33
2018-09-10T13:48:02.972Z,3.90
2018-09-10T13:50:30.453Z,3.50
2018-09-10T13:52:58.202Z,3.70
2018-09-10T13:55:25.729Z,3.33
2018-09-10T13:57:53.411Z,3.20
2018-09-10T14:00:20.852Z,4.40
2018-09-10T14:02:48.585Z,3.70
2018-09-10T14:05:16.032Z,3.70
2018-09-10T14:07:43.503Z,3.10
2018-09-10T14:10:11.128Z,3.60
2018-09-10T14:12:38.594Z,3.77
2018-09-10T14:15:06.129Z,3.10
2018-09-10T14:17:33.603Z,3.90
2018-09-10T14:20:01.138Z,3.70
2018-09-10T14:22:28.650Z,3.17
2018-09-10T14:24:56.183Z,3.90
2018-09-10T14:27:23.882Z,3.67
2018-09-10T14:29:51.293Z,3.90
2018-09-10T14:32:18.748Z,3.93
2018-09-10T14:34:46.353Z,3.67
2018-09-10T14:37:13.775Z,2.90
2018-09-10T14:39:41.318Z,3.00
2018-09-10T14:42:08.812Z,4.50
2018-09-10T14:44:36.360Z,3.80
2018-09-10T14:47:03.920Z,4.47
2018-09-10T14:49:31.395Z,3.13
2018-09-10T14:51:58.877Z,3.20
2018-09-10T14:54:26.372Z,3.40
2018-09-10T14:56:54.119Z,2.90
2018-09-10T14:59:21.585Z,2.73
2018-09-10T15:01:49.209Z,3.00
2018-09-10T15:04:16.817Z,2.73
2018-09-10T15:06:44.317Z,2.80
2018-09-10T15:09:11.803Z,2.80
2018-09-10T15:11:39.313Z,2.57
2018-09-10T15:14:06.914Z,2.87
2018-09-10T15:16:34.464Z,3.90
2018-09-10T15:19:02.246Z,2.90
2018-09-10T15:21:29.683Z,2.50
2018-09-10T15:23:57.211Z,2.90
2018-09-10T15:26:24.984Z,2.97
2018-09-10T15:28:52.560Z,3.27
2018-09-10T15:31:20.165Z,2.87
2018-09-10T15:33:47.723Z,2.70
2018-09-10T15:36:15.275Z,2.83
2018-09-10T15:38:42.904Z,3.20
2018-09-10T15:41:10.425Z,3.20
2018-09-10T15:43:37.915Z,3.10
2018-09-10T15:46:05.393Z,3.30
2018-09-10T15:48:32.920Z,2.83
2018-09-10T15:51:00.526Z,3.30
2018-09-10T15:53:28.068Z,3.80
2018-09-10T15:55:55.532Z,3.67
2018-09-10T15:58:23.320Z,3.70
2018-09-10T16:00:50.811Z,3.90
2018-09-10T16:03:18.877Z,3.40
2018-09-10T16:05:46.368Z,3.57
2018-09-10T16:08:13.859Z,3.27
2018-09-10T16:10:41.384Z,3.87
2018-09-10T16:13:08.892Z,3.07
2018-09-10T16:15:36.547Z,3.90
2018-09-10T16:18:05.409Z,2.67
2018-09-10T16:20:32.895Z,2.50
2018-09-10T16:23:00.430Z,3.03
2018-09-10T16:25:27.908Z,3.30
2018-09-10T16:27:55.571Z,2.63
2018-09-10T16:30:23.157Z,2.50
2018-09-10T16:32:50.654Z,2.50
2018-09-10T16:35:18.193Z,2.37
2018-09-10T16:37:45.652Z,2.50
2018-09-10T16:40:13.160Z,2.63
2018-09-10T16:42:40.726Z,2.20
2018-09-10T16:45:08.230Z,2.60
2018-09-10T16:47:35.769Z,2.93
2018-09-10T16:50:04.132Z,2.33
2018-09-10T16:52:31.716Z,2.20
2018-09-10T16:54:59.501Z,2.33
2018-09-10T16:57:26.935Z,2.20
2018-09-10T16:59:54.432Z,2.70
2018-09-10T17:02:22.305Z,2.57
2018-09-10T17:04:49.854Z,2.33
2018-09-10T17:07:17.443Z,2.27
2018-09-10T17:09:44.992Z,1.97
2018-09-10T17:12:12.603Z,1.67
2018-09-10T17:14:40.424Z,2.20
2018-09-10T17:17:08.408Z,2.83
2018-09-10T17:19:36.250Z,2.20
2018-09-10T17:22:05.413Z,3.00
2018-09-10T17:24:32.944Z,4.00
2018-09-10T17:27:00.444Z,3.53
2018-09-10T17:29:27.998Z,2.53
2018-09-10T17:31:55.523Z,2.10
2018-09-10T17:34:23.105Z,2.10
2018-09-10T17:36:50.598Z,1.90
2018-09-10T17:39:18.636Z,3.17
2018-09-10T17:41:46.767Z,1.77
2018-09-10T17:44:14.243Z,2.43
2018-09-10T17:46:41.718Z,2.57
2018-09-10T17:49:09.373Z,2.57
2018-09-10T17:51:37.111Z,2.50
2018-09-10T17:54:06.381Z,2.30
2018-09-10T17:56:34.049Z,2.30
2018-09-10T17:59:02.694Z,2.07
2018-09-10T18:01:31.506Z,3.27
2018-09-10T18:03:59.395Z,2.93
2018-09-10T18:06:28.608Z,2.87
2018-09-10T18:08:56.489Z,2.87
2018-09-10T18:11:24.026Z,3.10
2018-09-10T18:13:51.580Z,2.33
2018-09-10T18:16:19.149Z,2.20
2018-09-10T18:18:46.925Z,2.67
2018-09-10T18:21:15.011Z,2.70
2018-09-10T18:23:43.706Z,3.90
2018-09-10T18:26:14.425Z,3.73
2018-09-10T18:28:42.092Z,5.00
2018-09-10T18:31:10.260Z,5.13
2018-09-10T18:33:37.974Z,3.07
2018-09-10T18:36:05.958Z,2.63
2018-09-10T18:38:33.669Z,2.10
2018-09-10T18:41:01.449Z,2.60
2018-09-10T18:43:29.049Z,2.10
2018-09-10T18:45:57.964Z,2.80
2018-09-10T18:48:25.725Z,2.50
2018-09-10T18:50:53.570Z,2.33
2018-09-10T18:53:21.291Z,2.40
2018-09-10T18:55:49.025Z,2.80
2018-09-10T18:58:16.747Z,2.50
2018-09-10T19:00:44.505Z,3.90
2018-09-10T19:03:12.092Z,3.23
2018-09-10T19:05:39.783Z,3.13
2018-09-10T19:08:07.574Z,3.30
2018-09-10T19:10:35.761Z,3.80
2018-09-10T19:13:03.511Z,6.73
2018-09-10T19:15:31.138Z,5.03
2018-09-10T19:17:58.946Z,5.57
2018-09-10T19:20:26.653Z,7.13
2018-09-10T19:22:54.319Z,6.53
2018-09-10T19:25:21.989Z,7.70
2018-09-10T19:27:49.925Z,8.90
2018-09-10T19:30:17.644Z,8.47
2018-09-10T19:32:45.305Z,9.83
2018-09-10T19:35:12.831Z,10.57
2018-09-10T19:37:40.546Z,11.28
2018-09-10T19:40:08.239Z,11.80
2018-09-10T19:42:35.921Z,10.63
2018-09-10T19:45:03.727Z,11.67
2018-09-10T19:47:31.416Z,12.10
2018-09-10T19:49:59.029Z,11.50
2018-09-10T19:52:26.630Z,12.50
2018-09-10T19:54:54.209Z,12.20
2018-09-10T19:57:21.750Z,20.30
2018-09-10T19:59:49.291Z,15.33
2018-09-10T20:02:16.868Z,13.50
2018-09-10T20:04:44.423Z,13.53
2018-09-10T20:07:11.960Z,12.90
2018-09-10T20:09:40.016Z,13.20
2018-09-10T20:12:07.509Z,11.97
2018-09-10T20:14:35.073Z,11.90
2018-09-10T20:17:02.848Z,11.10
2018-09-10T20:19:30.597Z,12.07
2018-09-10T20:21:58.170Z,12.60
2018-09-10T20:24:25.761Z,11.00
2018-09-10T20:26:53.335Z,11.70
2018-09-10T20:29:20.868Z,11.63
2018-09-10T20:31:48.451Z,11.57
2018-09-10T20:34:15.988Z,10.47
2018-09-10T20:36:43.481Z,10.90
2018-09-10T20:39:12.358Z,9.80
2018-09-10T20:41:40.067Z,10.03
2018-09-10T20:44:07.898Z,10.40
2018-09-10T20:46:36.031Z,8.97
2018-09-10T20:49:03.664Z,9.00
2018-09-10T20:51:31.144Z,8.33
2018-09-10T20:53:58.695Z,9.00
2018-09-10T20:56:26.152Z,9.17
2018-09-10T20:58:53.703Z,7.47
2018-09-10T21:01:21.323Z,8.80
2018-09-10T21:03:48.937Z,7.17
2018-09-10T21:06:16.935Z,7.70
2018-09-10T21:08:44.417Z,8.07
2018-09-10T21:11:12.005Z,8.43
2018-09-10T21:13:39.525Z,8.70
2018-09-10T21:16:07.172Z,7.60
2018-09-10T21:18:34.734Z,7.70
2018-09-10T21:21:02.234Z,9.20
2018-09-10T21:23:29.730Z,7.80
2018-09-10T21:25:57.434Z,8.13
2018-09-10T21:28:24.991Z,8.20
2018-09-10T21:30:53.221Z,8.20
2018-09-10T21:33:20.698Z,8.60
2018-09-10T21:35:48.569Z,7.87
2018-09-10T21:38:16.080Z,8.30
2018-09-10T21:40:43.682Z,7.57
2018-09-10T21:43:11.216Z,8.27
2018-09-10T21:45:39.292Z,7.63
2018-09-10T21:48:07.295Z,7.47
2018-09-10T21:50:35.152Z,6.80
2018-09-10T21:53:02.764Z,8.20
2018-09-10T21:55:30.310Z,8.70
2018-09-10T21:57:57.999Z,6.57
2018-09-10T22:00:25.737Z,6.93
2018-09-10T22:02:53.403Z,6.83
2018-09-10T22:05:21.432Z,6.60
2018-09-10T22:07:49.133Z,6.23
2018-09-10T22:10:16.868Z,6.73
2018-09-10T22:12:44.673Z,8.00
2018-09-10T22:15:12.616Z,7.63
2018-09-10T22:17:40.318Z,7.30
2018-09-10T22:20:07.837Z,6.80
2018-09-10T22:22:35.332Z,6.50
2018-09-10T22:25:03.040Z,6.37
2018-09-10T22:27:30.633Z,6.60
2018-09-10T22:29:58.680Z,5.90
2018-09-10T22:32:26.274Z,6.60
2018-09-10T22:34:53.800Z,7.00
2018-09-10T22:37:21.435Z,7.40
2018-09-10T22:39:49.274Z,7.33
2018-09-10T22:42:16.954Z,7.13
2018-09-10T22:44:44.496Z,7.30
2018-09-10T22:47:12.141Z,6.23
2018-09-10T22:49:39.766Z,6.63
2018-09-10T22:52:07.720Z,6.73
2018-09-10T22:54:35.247Z,7.03
2018-09-10T22:57:02.919Z,6.17
2018-09-10T22:59:30.784Z,6.50
2018-09-10T23:01:58.508Z,7.23
2018-09-10T23:04:26.120Z,6.80
2018-09-10T23:06:53.764Z,6.67
2018-09-10T23:09:21.350Z,5.93
2018-09-10T23:11:48.984Z,6.27
2018-09-10T23:14:17.502Z,6.40
2018-09-10T23:16:45.106Z,6.73
2018-09-10T23:19:12.634Z,7.20
2018-09-10T23:21:40.459Z,7.10
2018-09-10T23:24:08.026Z,7.17
2018-09-10T23:26:36.011Z,7.03
2018-09-10T23:29:03.623Z,6.57
2018-09-10T23:31:31.253Z,6.60
2018-09-10T23:33:58.898Z,6.80
2018-09-10T23:36:26.526Z,7.20
2018-09-10T23:38:54.114Z,7.17
2018-09-10T23:41:21.755Z,7.10
2018-09-10T23:43:49.344Z,6.03
2018-09-10T23:46:16.931Z,5.80
2018-09-10T23:48:44.525Z,5.60
2018-09-10T23:51:12.154Z,6.83
2018-09-10T23:53:39.836Z,7.50
2018-09-10T23:56:08.133Z,6.33
2018-09-10T23:58:36.179Z,8.67
